Time;durP1;ratioP1;P1;durP2;ratioP2;P2;SDS_P1;SDS_P2;PMS_P1;PMS_P2;Temp;Humidity;BMP_temperature;BMP_pressure;BME280_temperature;BME280_humidity;BME280_pressure;Samples;Min_cycle;Max_cycle;Signal;HPM_P1;HPM_P2
2022/08/08 00:00:06;;;;;;;1.40;1.30;;;19.80;99.90;;;;;;5075118;28;20975;-69
2022/08/08 00:02:57;;;;;;;1.43;1.33;;;19.80;99.90;;;;;;5075071;28;20626;-69
2022/08/08 00:05:38;;;;;;;9.20;1.30;;;19.70;99.90;;;;;;5074929;28;21030;-69
2022/08/08 00:08:23;;;;;;;2.87;1.30;;;19.70;99.90;;;;;;5075061;28;20573;-69
2022/08/08 00:10:52;;;;;;;1.80;1.70;;;19.60;99.90;;;;;;5074964;28;20657;-69
2022/08/08 00:13:39;;;;;;;1.00;1.00;;;19.60;99.90;;;;;;5075055;28;21183;-69
2022/08/08 00:16:11;;;;;;;1.30;1.30;;;19.60;99.90;;;;;;5074800;28;21235;-72
2022/08/08 00:18:41;;;;;;;5.30;1.33;;;19.50;99.90;;;;;;5074882;28;20776;-69
2022/08/08 00:21:14;;;;;;;1.43;1.33;;;19.50;99.90;;;;;;5074915;28;20590;-69
2022/08/08 00:24:05;;;;;;;1.50;1.40;;;19.50;99.90;;;;;;5074921;28;20670;-69
2022/08/08 00:26:37;;;;;;;1.27;1.10;;;19.50;99.90;;;;;;5074464;28;20630;-69
2022/08/08 00:29:08;;;;;;;6.00;1.43;;;19.50;99.90;;;;;;5074249;28;20571;-69
2022/08/08 00:31:40;;;;;;;1.40;1.30;;;19.50;99.90;;;;;;5074184;28;20762;-69
2022/08/08 00:37:41;;;;;;;2.90;1.30;;;19.40;99.90;;;;;;5074507;28;20613;-69
2022/08/08 00:40:36;;;;;;;1.40;1.33;;;19.30;99.90;;;;;;5074360;28;21083;-69
2022/08/08 00:43:31;;;;;;;1.13;1.13;;;19.40;99.90;;;;;;5073222;28;20638;-69
2022/08/08 00:46:25;;;;;;;3.90;1.27;;;19.30;99.90;;;;;;5073923;28;20640;-69
2022/08/08 00:49:08;;;;;;;2.23;1.30;;;19.30;99.90;;;;;;5074041;28;20575;-69
2022/08/08 00:51:52;;;;;;;1.87;1.13;;;19.20;99.90;;;;;;5074164;28;20630;-69
2022/08/08 00:54:19;;;;;;;1.50;1.40;;;19.30;99.90;;;;;;5074158;28;20684;-69
2022/08/08 00:57:05;;;;;;;3.20;1.33;;;19.30;99.90;;;;;;5074068;28;20664;-69
2022/08/08 00:59:56;;;;;;;1.20;1.10;;;19.30;99.90;;;;;;5073916;28;20578;-69
2022/08/08 01:02:49;;;;;;;1.50;1.40;;;19.30;99.90;;;;;;5074116;28;20560;-69
2022/08/08 01:05:37;;;;;;;1.03;1.03;;;19.30;99.90;;;;;;5073682;28;20703;-69
2022/08/08 01:08:34;;;;;;;1.67;1.37;;;19.30;99.90;;;;;;5073633;28;20553;-70
2022/08/08 01:11:27;;;;;;;2.97;1.50;;;19.20;99.90;;;;;;5073384;28;21170;-71
2022/08/08 01:14:26;;;;;;;1.47;1.23;;;19.10;99.90;;;;;;5074030;28;20571;-70
2022/08/08 01:17:30;;;;;;;1.03;1.03;;;19.10;99.90;;;;;;5073477;28;21197;-70
2022/08/08 01:20:34;;;;;;;3.83;1.13;;;19.00;99.90;;;;;;5073562;28;20686;-70
2022/08/08 01:23:10;;;;;;;1.20;1.10;;;19.00;99.90;;;;;;5073256;28;20613;-68
2022/08/08 01:25:58;;;;;;;1.77;1.30;;;19.00;99.90;;;;;;5073556;28;20621;-70
2022/08/08 01:29:00;;;;;;;2.30;1.77;;;18.80;99.90;;;;;;5073200;28;20626;-70
2022/08/08 01:31:32;;;;;;;1.40;1.10;;;18.80;99.90;;;;;;5073300;28;21172;-70
2022/08/08 01:34:28;;;;;;;1.57;1.47;;;18.80;99.90;;;;;;5073236;28;20590;-70
2022/08/08 01:37:00;;;;;;;2.40;1.30;;;18.80;99.90;;;;;;5073329;28;20575;-70
2022/08/08 01:39:51;;;;;;;6.60;1.47;;;18.80;99.90;;;;;;5071733;28;20622;-70
2022/08/08 01:42:28;;;;;;;1.70;1.40;;;18.80;99.90;;;;;;5072867;28;20608;-70
2022/08/08 01:44:58;;;;;;;1.30;1.20;;;18.70;99.90;;;;;;5073287;28;20578;-70
2022/08/08 01:47:45;;;;;;;1.63;0.80;;;18.70;99.90;;;;;;5073428;28;21003;-70
2022/08/08 01:50:24;;;;;;;3.07;1.27;;;18.70;99.90;;;;;;5072851;28;21196;-70
2022/08/08 01:52:54;;;;;;;1.10;1.10;;;18.70;99.90;;;;;;5072935;28;20581;-70
2022/08/08 01:55:51;;;;;;;1.20;1.10;;;18.70;99.90;;;;;;5073243;28;20574;-70
2022/08/08 01:58:37;;;;;;;2.60;1.10;;;18.60;99.90;;;;;;5073022;28;20582;-70
2022/08/08 02:01:19;;;;;;;2.37;1.77;;;18.60;99.90;;;;;;5073379;28;20626;-70
2022/08/08 02:04:03;;;;;;;1.20;1.10;;;18.60;99.90;;;;;;5072949;28;21019;-70
2022/08/08 02:06:53;;;;;;;4.17;1.20;;;18.60;99.90;;;;;;5072921;28;20626;-70
2022/08/08 02:09:43;;;;;;;1.00;1.00;;;18.50;99.90;;;;;;5073306;28;20559;-70
2022/08/08 02:12:19;;;;;;;1.90;1.03;;;18.50;99.90;;;;;;5073009;28;20609;-70
2022/08/08 02:14:58;;;;;;;1.43;1.33;;;18.40;99.90;;;;;;5072514;28;20589;-70
2022/08/08 02:18:05;;;;;;;3.53;1.30;;;18.30;99.90;;;;;;5072771;28;20622;-70
2022/08/08 02:22:30;;;;;;;3.10;2.00;;;18.40;99.90;;;;;;5070076;28;20940;-70
2022/08/08 02:23:40;;;;;;;1.83;1.20;;;18.30;99.90;;;;;;5072451;28;20586;-70
2022/08/08 02:26:27;;;;;;;1.23;1.17;;;18.20;99.90;;;;;;5072757;28;20626;-70
2022/08/08 02:28:56;;;;;;;1.30;1.20;;;18.20;99.90;;;;;;5072823;28;20557;-70
2022/08/08 02:31:57;;;;;;;3.90;1.13;;;18.20;99.90;;;;;;5072308;28;21041;-70
2022/08/08 02:34:56;;;;;;;1.00;1.00;;;18.20;99.90;;;;;;5072670;28;20687;-70
2022/08/08 02:37:53;;;;;;;1.83;1.10;;;18.10;99.90;;;;;;5060382;28;21192;-70
2022/08/08 02:40:32;;;;;;;1.00;1.00;;;18.10;99.90;;;;;;5072418;28;20561;-70
2022/08/08 02:43:22;;;;;;;6.93;1.47;;;18.10;99.90;;;;;;5072654;28;20594;-70
2022/08/08 02:46:11;;;;;;;1.40;1.30;;;18.10;99.90;;;;;;5072362;28;20639;-70
2022/08/08 02:48:56;;;;;;;1.13;1.03;;;18.00;99.90;;;;;;5072323;28;21232;-70
2022/08/08 02:51:44;;;;;;;1.20;1.13;;;18.00;99.90;;;;;;5072382;28;20644;-70
2022/08/08 02:54:29;;;;;;;2.50;1.70;;;18.00;99.90;;;;;;5076077;28;20671;-70
2022/08/08 02:57:13;;;;;;;1.20;1.10;;;18.00;99.90;;;;;;5076506;28;20618;-70
2022/08/08 03:00:21;;;;;;;1.47;1.30;;;18.00;99.90;;;;;;5076412;28;20578;-70
2022/08/08 03:03:07;;;;;;;1.37;1.20;;;17.90;99.90;;;;;;5076169;28;20590;-70
2022/08/08 03:05:48;;;;;;;3.07;1.20;;;17.90;99.90;;;;;;5075776;28;20673;-70
2022/08/08 03:08:41;;;;;;;1.57;1.47;;;17.90;99.90;;;;;;5076225;28;20602;-70
2022/08/08 03:11:51;;;;;;;1.80;0.97;;;17.90;99.90;;;;;;5064599;28;20636;-70
2022/08/08 03:14:57;;;;;;;1.40;1.30;;;17.90;99.90;;;;;;5064057;28;20593;-70
2022/08/08 03:17:30;;;;;;;4.00;1.10;;;17.80;99.90;;;;;;5076028;28;20637;-70
2022/08/08 03:20:04;;;;;;;2.03;1.27;;;17.80;99.90;;;;;;5074406;28;20620;-70
2022/08/08 03:22:33;;;;;;;1.40;1.37;;;17.70;99.90;;;;;;5075953;28;20630;-70
2022/08/08 03:25:04;;;;;;;1.50;1.40;;;17.70;99.90;;;;;;5075712;28;20638;-70
2022/08/08 03:27:56;;;;;;;1.30;1.17;;;17.70;99.90;;;;;;5075696;28;21168;-70
2022/08/08 03:30:24;;;;;;;1.17;1.10;;;17.60;99.90;;;;;;5075575;28;20609;-70
2022/08/08 03:35:39;;;;;;;1.97;1.50;;;17.50;99.90;;;;;;5075405;28;20560;-70
2022/08/08 03:38:06;;;;;;;1.60;1.10;;;17.50;99.90;;;;;;5075508;28;20584;-70
2022/08/08 03:40:34;;;;;;;1.13;1.10;;;17.60;99.90;;;;;;5075434;28;20633;-70
2022/08/08 03:43:00;;;;;;;6.07;1.47;;;17.50;99.90;;;;;;5075296;28;20553;-70
2022/08/08 03:45:28;;;;;;;1.03;0.90;;;17.50;99.90;;;;;;5075150;28;20687;-70
2022/08/08 03:48:06;;;;;;;2.20;1.27;;;17.50;99.90;;;;;;5075335;28;20636;-70
2022/08/08 03:50:49;;;;;;;3.17;1.47;;;17.50;99.90;;;;;;5075315;28;20742;-70
2022/08/08 03:53:18;;;;;;;1.30;1.23;;;17.40;99.90;;;;;;5075465;28;20627;-70
2022/08/08 03:55:48;;;;;;;4.57;1.37;;;17.40;99.90;;;;;;5074922;28;20574;-70
2022/08/08 03:58:23;;;;;;;7.70;2.40;;;17.40;99.90;;;;;;5075518;28;20585;-70
2022/08/08 04:00:51;;;;;;;2.30;1.30;;;17.40;99.90;;;;;;5074960;28;20593;-70
2022/08/08 04:03:18;;;;;;;3.53;1.20;;;17.40;99.90;;;;;;5074412;28;20589;-70
2022/08/08 04:05:45;;;;;;;1.30;1.20;;;17.40;99.90;;;;;;5074271;28;21300;-70
2022/08/08 04:08:23;;;;;;;2.77;1.43;;;17.40;99.90;;;;;;5074011;28;20574;-70
2022/08/08 04:10:51;;;;;;;1.40;1.20;;;17.30;99.90;;;;;;5074824;28;20612;-70
2022/08/08 04:13:21;;;;;;;4.70;3.70;;;17.30;99.90;;;;;;5075022;28;20606;-70
2022/08/08 04:15:48;;;;;;;1.97;1.47;;;17.30;99.90;;;;;;5074612;28;20557;-70
2022/08/08 04:18:14;;;;;;;1.20;1.10;;;17.30;99.90;;;;;;5074939;28;20668;-70
2022/08/08 04:20:41;;;;;;;1.67;1.57;;;17.20;99.90;;;;;;5074453;28;20557;-69
2022/08/08 04:23:07;;;;;;;2.93;1.50;;;17.20;99.90;;;;;;5074416;28;21076;-70
2022/08/08 04:25:33;;;;;;;1.30;1.20;;;17.30;99.90;;;;;;5074936;28;20699;-70
2022/08/08 04:28:00;;;;;;;1.63;1.23;;;17.20;99.90;;;;;;5074411;28;20565;-70
2022/08/08 04:30:27;;;;;;;5.00;1.97;;;17.20;99.90;;;;;;5074159;28;20667;-70
2022/08/08 04:32:53;;;;;;;2.90;1.70;;;17.30;99.90;;;;;;5074402;28;20574;-70
2022/08/08 04:35:20;;;;;;;1.90;1.13;;;17.30;99.90;;;;;;5074706;28;20549;-70
2022/08/08 04:37:46;;;;;;;1.40;1.30;;;17.30;99.90;;;;;;5074248;28;21181;-70
2022/08/08 04:40:13;;;;;;;9.10;1.53;;;17.30;99.90;;;;;;5074602;28;20606;-70
2022/08/08 04:42:39;;;;;;;3.13;1.20;;;17.40;99.90;;;;;;5074239;28;20647;-68
2022/08/08 04:45:06;;;;;;;3.90;1.57;;;17.40;99.90;;;;;;5074478;28;20561;-70
2022/08/08 04:47:33;;;;;;;2.27;1.57;;;17.40;99.90;;;;;;5074672;28;21204;-71
2022/08/08 04:49:59;;;;;;;8.10;1.50;;;17.40;99.90;;;;;;5073973;28;20622;-70
2022/08/08 04:52:26;;;;;;;1.60;1.50;;;17.40;99.90;;;;;;5074571;28;20612;-70
2022/08/08 04:54:52;;;;;;;4.40;1.80;;;17.40;99.90;;;;;;5073995;28;21218;-70
2022/08/08 04:57:18;;;;;;;2.10;1.67;;;17.50;99.90;;;;;;5074239;28;20601;-68
2022/08/08 04:59:45;;;;;;;1.73;1.40;;;17.50;99.90;;;;;;5074198;28;20546;-70
2022/08/08 05:02:11;;;;;;;2.80;1.20;;;17.50;99.90;;;;;;5072435;28;21205;-71
2022/08/08 05:04:38;;;;;;;2.33;1.07;;;17.50;99.90;;;;;;5073916;28;20637;-70
2022/08/08 05:07:04;;;;;;;1.50;1.40;;;17.50;99.90;;;;;;5073716;28;20671;-71
2022/08/08 05:09:31;;;;;;;6.63;1.50;;;17.50;99.90;;;;;;5073694;28;20980;-70
2022/08/08 05:11:57;;;;;;;2.30;1.40;;;17.60;99.90;;;;;;5073459;28;20984;-68
2022/08/08 05:14:24;;;;;;;3.73;1.60;;;17.60;99.90;;;;;;5073983;28;20695;-70
2022/08/08 05:16:50;;;;;;;2.50;1.40;;;17.70;99.90;;;;;;5073392;28;20926;-70
2022/08/08 05:19:17;;;;;;;4.73;1.30;;;17.80;99.90;;;;;;5073801;28;20622;-68
2022/08/08 05:21:43;;;;;;;2.03;1.50;;;17.80;99.90;;;;;;5073816;28;20584;-68
2022/08/08 05:24:10;;;;;;;1.10;1.10;;;17.90;99.90;;;;;;5073646;28;20633;-69
2022/08/08 05:26:40;;;;;;;2.47;1.27;;;17.90;99.90;;;;;;5073621;28;20571;-69
2022/08/08 05:29:07;;;;;;;5.70;1.40;;;18.10;99.90;;;;;;5073449;28;21148;-68
2022/08/08 05:31:35;;;;;;;2.40;1.60;;;18.10;99.90;;;;;;5073228;28;20658;-68
2022/08/08 05:34:20;;;;;;;1.57;1.47;;;18.20;99.90;;;;;;5073438;28;20627;-69
2022/08/08 05:36:49;;;;;;;3.30;1.70;;;18.30;99.90;;;;;;5073031;28;20561;-68
2022/08/08 05:39:20;;;;;;;2.03;1.50;;;18.30;99.90;;;;;;5073346;28;20593;-68
2022/08/08 05:41:51;;;;;;;1.97;1.17;;;18.50;99.90;;;;;;5073221;28;20900;-68
2022/08/08 05:44:25;;;;;;;4.70;1.23;;;18.50;99.90;;;;;;5073562;28;20927;-68
2022/08/08 05:46:52;;;;;;;2.90;1.30;;;18.60;99.90;;;;;;5073176;28;20588;-68
2022/08/08 05:49:19;;;;;;;1.47;1.20;;;18.70;99.90;;;;;;5073009;28;21200;-68
2022/08/08 05:51:46;;;;;;;3.93;1.40;;;18.70;99.90;;;;;;5072927;28;20634;-68
2022/08/08 05:54:13;;;;;;;1.67;1.40;;;18.70;99.90;;;;;;5072688;28;20622;-68
2022/08/08 05:56:41;;;;;;;4.50;1.27;;;18.80;99.90;;;;;;5072993;28;20612;-68
2022/08/08 05:59:22;;;;;;;3.90;1.00;;;19.00;99.90;;;;;;5073027;28;20590;-68
2022/08/08 06:01:52;;;;;;;5.13;1.60;;;19.00;99.90;;;;;;5073066;28;21191;-70
2022/08/08 06:04:24;;;;;;;6.23;1.60;;;19.00;99.90;;;;;;5073452;28;21109;-69
2022/08/08 06:06:53;;;;;;;1.10;1.00;;;19.10;99.90;;;;;;5070957;28;20746;-71
2022/08/08 06:09:31;;;;;;;1.50;1.20;;;19.20;99.90;;;;;;5073100;28;20253;-71
2022/08/08 06:12:02;;;;;;;5.80;1.33;;;19.10;99.90;;;;;;5072870;28;20634;-74
2022/08/08 06:14:29;;;;;;;1.90;1.20;;;19.30;99.90;;;;;;5073303;28;20921;-73
2022/08/08 06:17:00;;;;;;;10.23;1.43;;;19.40;99.90;;;;;;5073321;28;20694;-72
2022/08/08 06:19:27;;;;;;;8.87;2.13;;;19.40;99.90;;;;;;5073067;28;21192;-72
2022/08/08 06:21:54;;;;;;;15.50;1.87;;;19.50;99.90;;;;;;5072501;28;20621;-72
2022/08/08 06:24:21;;;;;;;3.03;1.33;;;19.60;99.90;;;;;;5072655;28;20641;-72
2022/08/08 06:27:03;;;;;;;1.87;1.50;;;19.70;99.90;;;;;;5074081;28;20991;-73
2022/08/08 06:29:37;;;;;;;1.23;1.23;;;19.70;99.90;;;;;;5079504;28;20549;-72
2022/08/08 06:32:05;;;;;;;1.83;1.23;;;19.70;99.90;;;;;;5079117;28;20629;-73
2022/08/08 06:34:37;;;;;;;2.93;1.00;;;19.90;99.90;;;;;;5079139;28;21088;-72
2022/08/08 06:37:11;;;;;;;2.07;1.60;;;19.90;99.90;;;;;;5079346;28;20601;-73
2022/08/08 06:39:42;;;;;;;1.30;1.20;;;20.00;99.90;;;;;;5079358;28;20570;-72
2022/08/08 06:42:11;;;;;;;5.30;1.23;;;20.10;99.90;;;;;;5078933;28;21006;-71
2022/08/08 06:44:41;;;;;;;1.50;1.40;;;20.20;99.90;;;;;;5079296;28;20613;-72
2022/08/08 06:47:07;;;;;;;2.07;1.40;;;20.30;99.90;;;;;;5079689;28;20636;-73
2022/08/08 06:49:36;;;;;;;1.33;1.23;;;20.40;99.90;;;;;;5079343;28;20655;-73
2022/08/08 06:52:03;;;;;;;3.27;1.37;;;20.30;99.90;;;;;;5078779;28;20696;-71
2022/08/08 06:54:31;;;;;;;3.00;1.27;;;20.50;99.90;;;;;;5079062;28;20625;-73
2022/08/08 06:56:59;;;;;;;3.20;1.50;;;20.50;99.90;;;;;;5079327;28;21034;-72
2022/08/08 06:59:25;;;;;;;8.40;1.63;;;20.50;99.90;;;;;;5079056;28;20999;-71
2022/08/08 07:02:00;;;;;;;4.43;1.30;;;20.70;99.90;;;;;;5078951;28;20586;-71
2022/08/08 07:04:51;;;;;;;1.73;1.20;;;20.80;99.90;;;;;;5079190;28;20632;-71
2022/08/08 07:07:58;;;;;;;4.30;1.73;;;20.80;99.90;;;;;;5079384;28;20616;-72
2022/08/08 07:10:30;;;;;;;2.70;1.50;;;20.90;99.90;;;;;;5066710;28;20640;-70
2022/08/08 07:13:08;;;;;;;6.60;1.83;;;21.10;99.90;;;;;;5078884;28;21221;-71
2022/08/08 07:15:43;;;;;;;2.40;1.37;;;21.30;99.90;;;;;;5079335;28;20622;-71
2022/08/08 07:18:10;;;;;;;3.67;1.47;;;21.40;99.90;;;;;;5079197;28;20651;-72
2022/08/08 07:20:51;;;;;;;8.37;2.13;;;21.40;99.90;;;;;;5077871;28;20578;-74
2022/08/08 07:23:25;;;;;;;8.17;1.90;;;21.60;99.90;;;;;;5077907;28;20943;-74
2022/08/08 07:25:54;;;;;;;1.73;1.40;;;21.80;99.90;;;;;;5078703;28;21116;-73
2022/08/08 07:28:25;;;;;;;1.50;1.40;;;21.80;99.90;;;;;;5079069;28;20645;-73
2022/08/08 07:30:51;;;;;;;5.33;1.30;;;22.00;99.90;;;;;;5078909;28;20617;-72
2022/08/08 07:33:21;;;;;;;1.90;1.73;;;21.90;99.90;;;;;;5079030;28;20633;-73
2022/08/08 07:35:48;;;;;;;4.30;1.23;;;22.10;99.90;;;;;;5077343;28;20579;-72
2022/08/08 07:38:19;;;;;;;1.70;1.60;;;22.20;99.90;;;;;;5077566;28;20598;-73
2022/08/08 07:40:47;;;;;;;4.53;1.53;;;22.30;99.90;;;;;;5074919;28;20735;-72
2022/08/08 07:43:15;;;;;;;2.50;1.53;;;22.20;99.90;;;;;;5075644;28;20674;-71
2022/08/08 07:45:43;;;;;;;2.53;1.80;;;22.20;99.90;;;;;;5075532;28;20618;-71
2022/08/08 07:48:09;;;;;;;1.80;1.53;;;22.30;99.90;;;;;;5075353;28;21038;-71
2022/08/08 07:50:37;;;;;;;1.50;1.40;;;22.50;99.90;;;;;;5075522;28;20566;-72
2022/08/08 07:53:31;;;;;;;2.37;1.40;;;22.50;99.90;;;;;;5075399;28;20695;-73
2022/08/08 07:56:00;;;;;;;2.70;1.43;;;22.80;99.90;;;;;;5074616;28;20622;-73
2022/08/08 07:58:41;;;;;;;1.47;1.37;;;22.90;99.90;;;;;;5075095;28;20663;-73
2022/08/08 08:01:14;;;;;;;2.10;1.70;;;23.10;99.90;;;;;;5075449;28;21179;-73
2022/08/08 08:03:54;;;;;;;3.10;1.40;;;23.30;99.90;;;;;;5073906;28;20618;-72
2022/08/08 08:06:21;;;;;;;4.33;1.23;;;23.20;99.90;;;;;;5074833;28;20711;-72
2022/08/08 08:09:01;;;;;;;2.60;1.53;;;23.30;99.90;;;;;;5075091;28;20570;-73
2022/08/08 08:11:30;;;;;;;2.67;1.67;;;23.40;99.90;;;;;;5074780;28;20634;-74
2022/08/08 08:14:05;;;;;;;7.33;2.07;;;23.40;99.90;;;;;;5075110;28;20627;-73
2022/08/08 08:16:38;;;;;;;4.17;1.83;;;23.50;99.90;;;;;;5075064;28;20974;-73
2022/08/08 08:19:10;;;;;;;2.80;1.60;;;23.80;99.90;;;;;;5075069;28;20570;-73
2022/08/08 08:21:40;;;;;;;6.43;1.83;;;23.70;99.90;;;;;;5074954;28;20594;-74
2022/08/08 08:24:07;;;;;;;7.43;1.80;;;23.80;99.90;;;;;;5074656;28;20637;-73
2022/08/08 08:26:33;;;;;;;3.23;1.40;;;23.90;99.90;;;;;;5075474;28;20667;-73
2022/08/08 08:29:00;;;;;;;6.00;1.37;;;23.70;99.90;;;;;;5073300;28;20586;-73
2022/08/08 08:31:26;;;;;;;5.90;1.80;;;24.00;99.90;;;;;;5074317;28;20666;-73
2022/08/08 08:33:53;;;;;;;1.30;1.20;;;24.00;99.90;;;;;;5074437;28;20570;-73
2022/08/08 08:36:20;;;;;;;4.83;1.83;;;23.90;99.90;;;;;;5074455;28;20610;-73
2022/08/08 08:38:47;;;;;;;3.93;1.20;;;23.90;99.90;;;;;;5074428;28;20550;-73
2022/08/08 08:41:15;;;;;;;1.43;1.30;;;24.10;99.90;;;;;;5074291;28;20581;-73
2022/08/08 08:43:43;;;;;;;4.57;1.40;;;24.30;99.90;;;;;;5074142;28;20618;-72
2022/08/08 08:46:11;;;;;;;1.60;1.50;;;24.40;99.90;;;;;;5074524;28;20582;-73
2022/08/08 08:48:40;;;;;;;1.73;1.63;;;24.20;99.90;;;;;;5074178;28;20617;-72
2022/08/08 08:51:13;;;;;;;1.40;1.33;;;24.30;99.90;;;;;;5074058;28;20648;-72
2022/08/08 08:53:52;;;;;;;2.70;1.50;;;24.60;99.90;;;;;;5074380;28;20574;-74
2022/08/08 08:56:19;;;;;;;1.77;1.40;;;24.90;99.90;;;;;;5074238;28;20578;-73
2022/08/08 08:58:47;;;;;;;4.03;1.73;;;24.90;99.90;;;;;;5074516;28;20614;-75
2022/08/08 09:01:15;;;;;;;3.47;1.63;;;24.90;99.90;;;;;;5074391;28;20636;-73
2022/08/08 09:03:46;;;;;;;3.67;1.60;;;25.00;99.90;;;;;;5074992;28;20610;-74
2022/08/08 09:06:19;;;;;;;5.00;1.87;;;25.00;99.90;;;;;;5074863;28;21017;-75
2022/08/08 09:08:50;;;;;;;4.13;1.73;;;25.10;99.90;;;;;;5074393;28;21129;-74
2022/08/08 09:11:18;;;;;;;3.17;1.67;;;25.10;99.90;;;;;;5074234;28;20920;-75
2022/08/08 09:13:46;;;;;;;6.50;1.77;;;25.40;99.90;;;;;;5075249;28;20586;-74
2022/08/08 09:16:12;;;;;;;3.03;1.67;;;25.30;99.90;;;;;;5072646;28;21128;-75
2022/08/08 09:18:43;;;;;;;2.70;2.00;;;25.60;99.90;;;;;;5073985;28;20583;-75
2022/08/08 09:21:10;;;;;;;4.40;1.70;;;25.80;99.90;;;;;;5072379;28;21321;-74
2022/08/08 09:23:37;;;;;;;5.20;1.77;;;25.80;99.90;;;;;;5073658;28;20630;-75
2022/08/08 09:26:51;;;;;;;1.40;1.30;;;26.10;99.90;;;;;;5074187;28;20963;-74
2022/08/08 09:29:24;;;;;;;10.30;3.13;;;26.20;99.90;;;;;;5057760;28;20624;-73
2022/08/08 09:32:15;;;;;;;4.00;1.80;;;26.00;99.90;;;;;;5073624;28;20688;-73
2022/08/08 09:34:46;;;;;;;1.83;1.73;;;26.20;99.90;;;;;;5073734;28;20632;-71
2022/08/08 09:37:17;;;;;;;3.53;1.80;;;26.40;99.90;;;;;;5073741;28;20639;-73
2022/08/08 09:40:04;;;;;;;2.53;1.97;;;26.50;99.90;;;;;;5073764;28;20642;-73
2022/08/08 09:42:36;;;;;;;4.03;2.17;;;26.40;99.90;;;;;;5073343;28;20592;-75
2022/08/08 09:45:08;;;;;;;8.10;2.37;;;26.50;99.90;;;;;;5073798;28;20574;-71
2022/08/08 09:47:41;;;;;;;6.00;2.10;;;26.70;99.90;;;;;;5072863;28;21049;-74
2022/08/08 09:50:10;;;;;;;2.10;1.90;;;26.90;99.90;;;;;;5073705;28;20581;-74
2022/08/08 09:52:41;;;;;;;1.80;1.70;;;26.80;99.90;;;;;;5077626;28;20670;-74
2022/08/08 09:55:08;;;;;;;2.60;2.00;;;26.80;99.90;;;;;;5073216;28;20615;-74
2022/08/08 09:57:38;;;;;;;1.80;1.70;;;26.80;99.90;;;;;;5073947;28;20594;-71
2022/08/08 10:00:08;;;;;;;3.07;1.90;;;26.80;99.90;;;;;;5074028;28;20622;-74
2022/08/08 10:02:44;;;;;;;6.00;2.03;;;26.90;99.90;;;;;;5073606;28;20578;-73
2022/08/08 10:05:23;;;;;;;2.20;2.00;;;26.90;99.90;;;;;;5073731;28;20649;-73
2022/08/08 10:07:52;;;;;;;1.83;1.73;;;27.00;99.90;;;;;;5075794;28;21161;-74
2022/08/08 10:10:29;;;;;;;2.07;1.90;;;27.10;99.90;;;;;;5075726;28;20654;-74
2022/08/08 10:12:56;;;;;;;7.43;2.00;;;27.10;99.90;;;;;;5074539;28;20682;-73
2022/08/08 10:15:25;;;;;;;4.07;1.93;;;27.10;99.90;;;;;;5072540;28;20619;-73
2022/08/08 10:17:53;;;;;;;2.97;2.07;;;27.40;99.90;;;;;;5072834;28;20582;-74
2022/08/08 10:20:22;;;;;;;1.93;1.83;;;27.40;99.90;;;;;;5073163;28;20604;-73
2022/08/08 10:23:09;;;;;;;6.90;2.13;;;27.30;99.90;;;;;;5074294;28;20630;-72
2022/08/08 10:25:38;;;;;;;3.37;2.10;;;27.50;99.90;;;;;;5072786;28;20646;-72
2022/08/08 10:28:07;;;;;;;3.33;2.20;;;27.80;99.90;;;;;;5072584;28;20610;-72
2022/08/08 10:30:33;;;;;;;3.03;2.83;;;27.90;99.90;;;;;;5073026;28;20626;-72
2022/08/08 10:33:00;;;;;;;3.00;2.10;;;27.90;99.90;;;;;;5072520;28;20622;-73
2022/08/08 10:35:29;;;;;;;3.73;2.30;;;28.10;99.90;;;;;;5072401;28;20619;-73
2022/08/08 10:38:03;;;;;;;2.00;1.90;;;27.80;99.90;;;;;;5072454;28;21109;-73
2022/08/08 10:40:31;;;;;;;2.63;1.67;;;28.10;99.90;;;;;;5072974;28;20614;-73
2022/08/08 10:43:03;;;;;;;3.73;2.30;;;28.20;99.90;;;;;;5072418;28;20664;-73
2022/08/08 10:45:42;;;;;;;2.13;1.93;;;28.20;99.90;;;;;;5072747;28;20687;-73
2022/08/08 10:48:11;;;;;;;1.90;1.80;;;28.50;99.90;;;;;;5072533;28;20608;-73
2022/08/08 10:50:38;;;;;;;1.70;1.60;;;28.50;99.90;;;;;;5072785;28;20618;-75
2022/08/08 10:53:07;;;;;;;7.43;1.63;;;28.60;99.90;;;;;;5072754;28;20630;-72
2022/08/08 10:55:36;;;;;;;1.67;1.57;;;28.30;99.90;;;;;;5072233;28;20614;-71
2022/08/08 10:58:05;;;;;;;12.50;3.20;;;28.50;99.90;;;;;;5072247;28;21132;-72
2022/08/08 11:00:32;;;;;;;2.27;2.00;;;28.50;99.90;;;;;;5072717;28;20579;-72
2022/08/08 11:03:13;;;;;;;1.83;1.70;;;28.70;99.90;;;;;;5072299;28;20579;-73
2022/08/08 11:05:48;;;;;;;4.93;2.30;;;28.80;99.90;;;;;;5072103;28;20668;-75
2022/08/08 11:08:23;;;;;;;7.50;1.97;;;28.90;99.90;;;;;;5072464;28;20574;-75
2022/08/08 11:11:03;;;;;;;1.70;1.60;;;29.20;99.90;;;;;;5072503;28;20601;-74
2022/08/08 11:13:44;;;;;;;5.70;1.93;;;29.30;99.90;;;;;;5074055;28;21019;-73
2022/08/08 11:16:23;;;;;;;5.57;1.97;;;29.60;99.90;;;;;;5075918;28;20574;-74
2022/08/08 11:18:50;;;;;;;2.73;2.10;;;29.20;99.90;;;;;;5075853;28;20582;-73
2022/08/08 11:21:18;;;;;;;1.80;1.70;;;29.30;99.90;;;;;;5075760;28;20578;-73
2022/08/08 11:23:46;;;;;;;2.17;1.97;;;29.60;99.90;;;;;;5076055;28;20634;-74
2022/08/08 11:26:19;;;;;;;2.27;2.07;;;29.90;99.90;;;;;;5076124;28;20578;-75
2022/08/08 11:28:46;;;;;;;2.37;1.67;;;30.20;99.90;;;;;;5058244;28;20618;-75
2022/08/08 11:31:16;;;;;;;7.20;2.20;;;30.50;99.90;;;;;;5076196;28;20571;-76
2022/08/08 11:33:51;;;;;;;2.47;1.90;;;30.80;99.90;;;;;;5076129;28;20637;-76
2022/08/08 11:36:19;;;;;;;1.90;1.80;;;31.30;99.90;;;;;;5075469;28;21108;-75
2022/08/08 11:38:46;;;;;;;1.70;1.60;;;31.00;99.90;;;;;;5075922;28;20581;-77
2022/08/08 11:41:15;;;;;;;3.53;1.87;;;31.10;99.90;;;;;;5074285;28;20613;-75
2022/08/08 11:43:44;;;;;;;5.07;1.90;;;31.40;99.90;;;;;;5074830;28;20627;-76
2022/08/08 11:46:11;;;;;;;2.90;1.60;;;31.10;99.90;;;;;;5074334;28;21192;-75
2022/08/08 11:48:38;;;;;;;3.77;1.60;;;31.20;99.90;;;;;;5075302;28;20593;-76
2022/08/08 11:51:05;;;;;;;2.13;1.90;;;31.90;99.90;;;;;;5074358;28;20697;-76
2022/08/08 11:53:32;;;;;;;1.70;1.60;;;32.10;99.90;;;;;;5075591;28;20645;-75
2022/08/08 11:55:58;;;;;;;3.37;1.63;;;32.00;99.90;;;;;;5075171;28;21120;-75
2022/08/08 11:58:34;;;;;;;1.60;1.50;;;31.40;99.90;;;;;;5075246;28;20969;-76
2022/08/08 12:01:04;;;;;;;4.00;1.80;;;31.90;99.90;;;;;;5078122;28;20780;-73
2022/08/08 12:03:35;;;;;;;3.03;1.70;;;32.50;99.90;;;;;;5062332;28;20287;-73
2022/08/08 12:06:16;;;;;;;3.67;1.40;;;32.20;99.90;;;;;;5075546;28;20661;-74
2022/08/08 12:08:43;;;;;;;3.53;1.50;;;31.90;99.90;;;;;;5076458;28;20574;-74
2022/08/08 12:11:14;;;;;;;2.47;1.77;;;32.30;99.90;;;;;;5075835;28;20610;-73
2022/08/08 12:13:41;;;;;;;1.60;1.50;;;32.50;99.90;;;;;;5074972;28;21222;-73
2022/08/08 12:16:19;;;;;;;1.67;1.57;;;32.30;99.90;;;;;;5074763;28;20671;-74
2022/08/08 12:18:55;;;;;;;1.63;1.50;;;32.00;99.90;;;;;;5075383;28;20927;-73
2022/08/08 12:21:39;;;;;;;3.57;1.83;;;31.70;99.90;;;;;;5075515;28;21007;-72
2022/08/08 12:24:10;;;;;;;1.70;1.60;;;32.40;99.90;;;;;;5074714;28;20642;-74
2022/08/08 12:26:49;;;;;;;2.87;2.37;;;33.30;99.90;;;;;;5074668;28;21049;-74
2022/08/08 12:29:19;;;;;;;5.17;2.03;;;33.60;99.90;;;;;;5075025;28;20625;-74
2022/08/08 12:31:45;;;;;;;2.30;1.63;;;34.30;99.90;;;;;;5074897;28;21202;-71
2022/08/08 12:34:12;;;;;;;2.20;2.10;;;32.30;99.90;;;;;;5074685;28;20699;-71
2022/08/08 12:36:42;;;;;;;5.03;2.07;;;32.70;99.90;;;;;;5074563;28;21134;-74
2022/08/08 12:39:09;;;;;;;1.90;1.70;;;33.00;99.90;;;;;;5074615;28;20644;-74
2022/08/08 12:41:36;;;;;;;5.33;1.90;;;33.20;99.90;;;;;;5074656;28;20570;-74
2022/08/08 12:44:06;;;;;;;2.27;2.17;;;33.60;99.90;;;;;;5074854;28;20570;-75
2022/08/08 12:46:33;;;;;;;3.47;1.97;;;33.30;99.90;;;;;;5074185;28;20590;-74
2022/08/08 12:49:03;;;;;;;2.40;2.20;;;32.90;99.90;;;;;;5074303;28;20910;-74
2022/08/08 12:51:43;;;;;;;3.17;1.80;;;32.90;99.90;;;;;;5074185;28;20644;-71
2022/08/08 12:54:21;;;;;;;1.97;1.60;;;32.50;99.90;;;;;;5074228;28;20731;-74
2022/08/08 12:56:48;;;;;;;4.80;2.00;;;32.70;99.90;;;;;;5074393;28;20571;-74
2022/08/08 12:59:16;;;;;;;6.93;1.90;;;33.10;99.90;;;;;;5074179;28;20640;-73
2022/08/08 13:01:57;;;;;;;2.07;1.97;;;32.10;99.90;;;;;;5073851;28;20610;-74
2022/08/08 13:04:31;;;;;;;2.03;1.93;;;32.70;99.90;;;;;;5073859;28;20676;-74
2022/08/08 13:07:05;;;;;;;6.40;2.00;;;32.60;99.90;;;;;;5074145;28;20627;-75
2022/08/08 13:09:38;;;;;;;1.83;1.73;;;33.40;99.90;;;;;;5074132;28;20652;-75
2022/08/08 13:12:14;;;;;;;2.03;1.80;;;34.30;99.90;;;;;;5074072;28;21153;-74
2022/08/08 13:15:02;;;;;;;3.70;2.17;;;35.10;99.90;;;;;;5073755;28;20586;-75
2022/08/08 13:17:30;;;;;;;4.10;1.80;;;35.40;99.90;;;;;;5073654;28;20590;-76
2022/08/08 13:19:56;;;;;;;1.93;1.83;;;35.40;99.90;;;;;;5072438;28;20626;-76
2022/08/08 13:22:23;;;;;;;4.70;2.00;;;36.20;99.90;;;;;;5073651;28;20581;-75
2022/08/08 13:24:50;;;;;;;2.57;2.17;;;35.90;99.90;;;;;;5073907;28;20673;-74
2022/08/08 13:27:36;;;;;;;3.80;2.80;;;35.00;99.90;;;;;;5073635;28;20703;-74